Time;durP1;ratioP1;P1;durP2;ratioP2;P2;SDS_P1;SDS_P2;PMS_P1;PMS_P2;Temp;Humidity;BMP_temperature;BMP_pressure;BME280_temperature;BME280_humidity;BME280_pressure;Samples;Min_cycle;Max_cycle;Signal;HPM_P1;HPM_P2
2021/08/12 00:00:58;;;;;;;1.73;1.63;;;37.60;44.30;;;;;;5040495;28;20504;-38
2021/08/12 00:03:29;;;;;;;1.63;1.53;;;37.60;44.40;;;;;;5040535;28;20449;-39
2021/08/12 00:06:01;;;;;;;1.80;1.70;;;37.70;44.30;;;;;;5023065;28;20455;-39
2021/08/12 00:08:31;;;;;;;2.40;1.57;;;37.60;45.40;;;;;;5040342;28;20439;-39
2021/08/12 00:11:07;;;;;;;1.33;1.23;;;37.60;45.70;;;;;;5041288;28;20474;-38
2021/08/12 00:13:38;;;;;;;1.93;1.60;;;37.60;45.30;;;;;;5040137;28;20491;-39
2021/08/12 00:16:09;;;;;;;1.80;1.70;;;37.60;46.10;;;;;;5038444;28;20456;-40
2021/08/12 00:18:42;;;;;;;1.67;1.57;;;37.60;46.00;;;;;;5039821;28;20483;-38
2021/08/12 00:21:13;;;;;;;1.60;1.50;;;37.60;46.00;;;;;;5037243;28;20495;-39
2021/08/12 00:23:44;;;;;;;1.80;1.70;;;37.50;46.60;;;;;;5026407;28;20491;-39
2021/08/12 00:26:16;;;;;;;2.00;1.80;;;37.40;46.20;;;;;;5036723;28;20451;-39
2021/08/12 00:28:47;;;;;;;2.33;2.13;;;37.20;45.90;;;;;;5039165;28;20596;-39
2021/08/12 00:31:18;;;;;;;1.90;1.80;;;37.20;46.20;;;;;;5031701;28;20480;-39
2021/08/12 00:33:49;;;;;;;1.97;1.87;;;37.30;47.10;;;;;;5038381;28;20476;-39
2021/08/12 00:36:20;;;;;;;1.73;1.30;;;37.30;46.60;;;;;;5026970;28;20462;-39
2021/08/12 00:38:51;;;;;;;1.70;1.60;;;37.20;47.40;;;;;;5032089;28;20440;-39
2021/08/12 00:41:24;;;;;;;3.00;1.60;;;37.00;47.40;;;;;;5033248;28;20444;-40
2021/08/12 00:43:55;;;;;;;2.50;2.10;;;36.90;47.90;;;;;;5039732;28;20455;-42
2021/08/12 00:46:29;;;;;;;2.33;2.23;;;36.70;48.10;;;;;;5039231;28;20494;-46
2021/08/12 00:49:00;;;;;;;2.90;2.10;;;36.60;48.50;;;;;;5039113;28;20465;-44
2021/08/12 00:51:31;;;;;;;1.93;1.77;;;36.50;48.50;;;;;;5038151;28;20443;-45
2021/08/12 00:54:02;;;;;;;2.13;1.90;;;36.50;48.20;;;;;;5039663;28;20453;-45
2021/08/12 00:56:35;;;;;;;1.77;1.67;;;36.40;48.30;;;;;;5039155;28;20451;-42
2021/08/12 00:59:08;;;;;;;2.17;2.07;;;36.40;48.30;;;;;;5030427;28;20477;-42
2021/08/12 01:01:40;;;;;;;1.90;1.80;;;36.50;47.90;;;;;;5039093;28;20453;-44
2021/08/12 01:04:11;;;;;;;5.87;4.50;;;36.50;49.00;;;;;;5039387;28;20823;-44
2021/08/12 01:06:52;;;;;;;3.33;3.13;;;36.50;48.90;;;;;;5038266;28;20538;-39
2021/08/12 01:09:32;;;;;;;2.30;1.60;;;36.40;49.60;;;;;;5040083;28;20496;-39
2021/08/12 01:12:15;;;;;;;1.70;1.60;;;36.40;49.00;;;;;;5075565;28;20451;-45
2021/08/12 01:14:56;;;;;;;1.97;1.87;;;36.40;49.50;;;;;;5040532;28;20454;-41
2021/08/12 01:17:33;;;;;;;1.80;1.70;;;36.40;49.50;;;;;;5042413;28;20460;-41
2021/08/12 01:20:28;;;;;;;1.57;1.50;;;36.30;49.80;;;;;;5043373;28;20900;-40
2021/08/12 01:23:01;;;;;;;1.83;1.57;;;36.30;49.30;;;;;;5041035;28;20482;-43
2021/08/12 01:25:33;;;;;;;1.70;1.60;;;36.20;49.50;;;;;;5042292;28;20449;-39
2021/08/12 01:28:13;;;;;;;2.23;2.03;;;36.20;49.50;;;;;;5042654;28;20445;-43
2021/08/12 01:30:55;;;;;;;1.70;1.60;;;36.10;49.20;;;;;;5041744;28;20526;-46
2021/08/12 01:33:36;;;;;;;1.67;1.57;;;36.10;50.40;;;;;;5041527;28;20445;-40
2021/08/12 01:36:09;;;;;;;3.10;2.10;;;36.10;49.00;;;;;;5040152;28;20480;-44
2021/08/12 01:38:41;;;;;;;4.37;3.97;;;35.90;49.30;;;;;;5048471;27;20527;-39
2021/08/12 01:41:12;;;;;;;11.30;10.40;;;35.80;50.40;;;;;;5065674;27;20506;-44
2021/08/12 01:43:43;;;;;;;7.60;6.80;;;35.80;50.00;;;;;;5041687;28;20465;-40
2021/08/12 01:46:14;;;;;;;2.97;1.87;;;35.70;51.10;;;;;;5041680;28;20502;-42
2021/08/12 01:48:46;;;;;;;2.33;1.70;;;35.70;50.40;;;;;;5048987;27;20453;-41
2021/08/12 01:51:21;;;;;;;2.10;1.97;;;35.70;50.20;;;;;;5040874;28;20492;-42
2021/08/12 01:53:53;;;;;;;2.17;2.00;;;35.60;50.60;;;;;;5042717;27;20456;-44
2021/08/12 01:56:26;;;;;;;103.63;97.00;;;35.50;50.30;;;;;;5041674;28;20484;-42
2021/08/12 01:59:03;;;;;;;32.93;29.83;;;35.50;50.10;;;;;;5047897;27;20937;-40
2021/08/12 02:01:34;;;;;;;5.80;5.30;;;35.40;50.10;;;;;;5023150;28;20488;-46
2021/08/12 02:04:15;;;;;;;4.77;3.40;;;35.40;49.70;;;;;;5048782;27;20469;-40
2021/08/12 02:06:52;;;;;;;1.80;1.70;;;35.20;51.40;;;;;;5040949;28;20599;-38
2021/08/12 02:09:23;;;;;;;2.10;2.00;;;35.00;51.70;;;;;;5047328;27;20448;-39
2021/08/12 02:12:14;;;;;;;1.87;1.60;;;34.80;52.60;;;;;;5042010;28;20494;-39
2021/08/12 02:14:54;;;;;;;1.60;1.50;;;34.50;52.20;;;;;;5041701;28;20488;-39
2021/08/12 02:17:25;;;;;;;2.90;2.13;;;34.50;51.60;;;;;;5038774;28;20451;-39
2021/08/12 02:19:56;;;;;;;1.90;1.80;;;34.50;51.10;;;;;;5035532;28;20461;-41
2021/08/12 02:22:36;;;;;;;1.77;1.40;;;34.50;51.00;;;;;;5030052;28;20513;-38
2021/08/12 02:25:13;;;;;;;1.80;1.40;;;34.60;50.30;;;;;;5041414;28;20459;-36
2021/08/12 02:27:49;;;;;;;1.70;1.60;;;34.60;50.80;;;;;;5040744;28;20448;-39
2021/08/12 02:30:20;;;;;;;2.00;1.47;;;34.50;50.50;;;;;;5037733;28;20477;-35
2021/08/12 02:32:53;;;;;;;1.83;1.73;;;34.50;50.70;;;;;;5039017;28;20458;-37
2021/08/12 02:35:27;;;;;;;2.03;1.40;;;34.50;50.60;;;;;;5047085;27;20453;-37
2021/08/12 02:38:03;;;;;;;1.70;1.60;;;34.30;51.00;;;;;;5035886;28;20500;-41
2021/08/12 02:40:35;;;;;;;2.87;1.83;;;34.20;51.50;;;;;;5041175;28;20449;-40
2021/08/12 02:43:12;;;;;;;1.70;1.60;;;34.00;51.70;;;;;;5041711;28;20484;-39
2021/08/12 02:45:44;;;;;;;2.83;2.00;;;33.80;52.60;;;;;;5041334;28;20448;-38
2021/08/12 02:48:16;;;;;;;1.67;1.50;;;33.60;53.10;;;;;;5041110;28;20468;-38
2021/08/12 02:50:48;;;;;;;1.90;1.80;;;33.40;53.60;;;;;;5033388;28;20479;-38
2021/08/12 02:53:33;;;;;;;1.70;1.60;;;33.30;53.60;;;;;;5039963;28;20461;-37
2021/08/12 02:56:10;;;;;;;1.70;1.60;;;33.10;54.00;;;;;;5037500;28;20467;-37
2021/08/12 02:58:44;;;;;;;2.13;1.77;;;33.10;54.10;;;;;;5040063;28;20899;-38
2021/08/12 03:01:17;;;;;;;1.73;1.40;;;32.90;54.60;;;;;;5037222;28;20515;-37
2021/08/12 03:03:50;;;;;;;3.83;2.20;;;32.70;54.90;;;;;;5039844;28;20536;-37
2021/08/12 03:06:23;;;;;;;1.60;1.50;;;32.60;55.30;;;;;;5039956;28;20522;-38
2021/08/12 03:08:58;;;;;;;1.90;1.43;;;32.60;54.80;;;;;;5053463;27;20456;-39
2021/08/12 03:11:30;;;;;;;3.17;1.57;;;32.70;55.30;;;;;;5042462;27;20486;-37
2021/08/12 03:14:02;;;;;;;1.67;1.57;;;32.70;55.40;;;;;;5040929;28;20508;-39
2021/08/12 03:16:33;;;;;;;1.67;1.57;;;32.70;55.40;;;;;;5039738;28;20523;-37
2021/08/12 03:19:05;;;;;;;1.60;1.50;;;32.60;55.60;;;;;;5031656;28;20459;-38
2021/08/12 03:21:36;;;;;;;3.23;1.70;;;32.50;55.90;;;;;;5038678;28;20459;-39
2021/08/12 03:24:09;;;;;;;2.97;1.87;;;32.40;56.00;;;;;;5040255;28;20537;-38
2021/08/12 03:26:40;;;;;;;2.90;1.70;;;32.30;56.70;;;;;;5038965;28;20451;-37
2021/08/12 03:29:11;;;;;;;2.93;1.90;;;32.00;57.30;;;;;;5040762;28;20520;-37
2021/08/12 03:31:44;;;;;;;2.30;1.90;;;31.90;57.60;;;;;;5034496;28;20492;-38
2021/08/12 03:34:25;;;;;;;1.70;1.60;;;31.70;58.20;;;;;;5040517;28;20454;-40
2021/08/12 03:36:56;;;;;;;1.80;1.60;;;31.50;58.30;;;;;;5038234;28;20479;-38
2021/08/12 03:39:29;;;;;;;3.20;2.00;;;31.50;58.20;;;;;;5038104;28;20459;-38
2021/08/12 03:42:01;;;;;;;1.93;1.63;;;31.60;57.90;;;;;;5038547;28;20453;-39
2021/08/12 03:44:35;;;;;;;1.83;1.73;;;31.50;58.30;;;;;;5040521;28;20435;-38
2021/08/12 03:47:07;;;;;;;1.80;1.70;;;31.50;58.20;;;;;;5040251;28;20458;-39
2021/08/12 03:49:41;;;;;;;3.43;1.83;;;31.50;58.50;;;;;;5039813;28;20491;-38
2021/08/12 03:52:15;;;;;;;2.00;1.70;;;31.40;58.70;;;;;;5039185;28;20526;-38
2021/08/12 03:54:47;;;;;;;1.60;1.43;;;31.30;59.20;;;;;;5040354;28;20511;-38
2021/08/12 03:57:24;;;;;;;2.23;1.83;;;31.30;59.50;;;;;;5039631;28;20896;-38
2021/08/12 04:00:17;;;;;;;1.63;1.53;;;31.20;59.30;;;;;;5039268;28;20585;-39
2021/08/12 04:05:41;;;;;;;4.37;2.40;;;30.80;60.50;;;;;;5040136;28;20895;-36
2021/08/12 04:08:12;;;;;;;1.60;1.50;;;30.60;61.40;;;;;;5022378;28;20455;-37
2021/08/12 04:10:45;;;;;;;2.17;1.87;;;30.40;60.70;;;;;;5039107;28;20501;-37
2021/08/12 04:13:16;;;;;;;1.77;1.67;;;30.40;60.30;;;;;;5039896;28;20529;-37
2021/08/12 04:15:47;;;;;;;1.80;1.60;;;30.40;59.80;;;;;;5039819;28;20455;-37
2021/08/12 04:18:18;;;;;;;1.20;1.10;;;30.40;59.90;;;;;;5038696;28;20511;-37
2021/08/12 04:20:49;;;;;;;1.80;1.70;;;30.50;59.20;;;;;;5039457;28;20454;-37
2021/08/12 04:23:20;;;;;;;1.87;1.40;;;30.60;58.60;;;;;;5041719;28;20494;-36
2021/08/12 04:26:01;;;;;;;1.40;1.30;;;30.60;58.80;;;;;;5038374;28;21025;-37
2021/08/12 04:28:49;;;;;;;2.20;1.47;;;30.60;58.80;;;;;;5038696;28;20486;-36
2021/08/12 04:31:21;;;;;;;1.67;1.57;;;30.60;59.00;;;;;;5039688;28;20486;-36
2021/08/12 04:33:55;;;;;;;1.73;1.17;;;30.60;58.90;;;;;;5039426;28;20453;-37
2021/08/12 04:36:27;;;;;;;2.57;1.50;;;30.50;59.30;;;;;;5039224;28;20440;-37
2021/08/12 04:38:58;;;;;;;1.20;1.10;;;30.30;59.80;;;;;;5045877;28;20510;-37
2021/08/12 04:41:47;;;;;;;0.80;0.80;;;30.20;59.80;;;;;;5039384;28;20505;-36
2021/08/12 04:44:21;;;;;;;1.20;1.10;;;30.10;59.90;;;;;;5041962;28;20558;-37
2021/08/12 04:46:53;;;;;;;1.50;1.40;;;30.00;60.40;;;;;;5041243;28;20447;-37
2021/08/12 04:49:24;;;;;;;2.10;1.40;;;29.90;60.40;;;;;;5041669;28;20458;-37
2021/08/12 04:51:55;;;;;;;1.97;1.40;;;29.80;60.20;;;;;;5041391;28;20482;-38
2021/08/12 04:54:26;;;;;;;2.10;1.50;;;29.80;60.30;;;;;;5043090;28;20476;-37
2021/08/12 04:56:59;;;;;;;1.83;1.10;;;29.90;59.60;;;;;;5042271;28;20454;-37
2021/08/12 04:59:30;;;;;;;1.57;1.07;;;29.90;59.70;;;;;;5041770;28;20795;-37
2021/08/12 05:02:01;;;;;;;1.13;1.03;;;29.90;59.60;;;;;;5042546;28;20458;-38
2021/08/12 05:04:33;;;;;;;0.90;0.70;;;29.90;59.20;;;;;;5045710;27;20478;-37
2021/08/12 05:07:04;;;;;;;1.17;0.90;;;29.90;59.80;;;;;;5041875;28;20525;-37
2021/08/12 05:09:37;;;;;;;1.03;0.93;;;29.70;60.00;;;;;;5042270;28;20457;-37
2021/08/12 05:12:10;;;;;;;1.10;1.00;;;29.60;60.10;;;;;;5042183;28;20474;-37
2021/08/12 05:14:41;;;;;;;1.93;1.03;;;29.40;60.80;;;;;;5041218;28;20896;-37
2021/08/12 05:17:12;;;;;;;1.77;0.90;;;29.30;61.30;;;;;;5041868;28;20451;-38
2021/08/12 05:19:43;;;;;;;1.10;1.00;;;29.20;61.10;;;;;;5037032;28;20449;-37
2021/08/12 05:22:15;;;;;;;1.40;1.00;;;29.10;61.40;;;;;;5041019;28;20442;-36
2021/08/12 05:24:46;;;;;;;2.30;1.10;;;29.00;61.70;;;;;;5042640;28;20477;-38
2021/08/12 05:27:19;;;;;;;1.00;0.90;;;28.90;62.00;;;;;;5042475;28;20484;-38
2021/08/12 05:29:50;;;;;;;1.40;0.90;;;28.80;62.20;;;;;;5040373;28;20456;-37
2021/08/12 05:32:21;;;;;;;1.40;0.90;;;28.70;62.50;;;;;;5042064;28;20554;-37
2021/08/12 05:34:51;;;;;;;2.53;1.00;;;28.60;62.90;;;;;;5041885;28;20501;-37
2021/08/12 05:37:22;;;;;;;1.50;0.93;;;28.40;63.20;;;;;;5041384;28;20477;-37
2021/08/12 05:39:53;;;;;;;1.00;0.90;;;28.30;63.10;;;;;;5041480;28;20489;-37
2021/08/12 05:42:26;;;;;;;1.57;0.80;;;28.30;63.80;;;;;;5041435;28;20457;-37
2021/08/12 05:44:57;;;;;;;0.97;0.97;;;28.20;63.60;;;;;;5041844;28;20505;-37
2021/08/12 05:47:28;;;;;;;0.90;0.70;;;28.10;63.80;;;;;;5042075;28;20462;-37
2021/08/12 05:49:59;;;;;;;0.80;0.80;;;28.10;63.20;;;;;;5040769;28;20449;-37
2021/08/12 05:52:30;;;;;;;1.27;0.90;;;28.10;63.80;;;;;;5040116;28;20550;-37
2021/08/12 05:55:01;;;;;;;1.10;1.00;;;28.00;64.70;;;;;;5042346;28;20470;-37
2021/08/12 05:57:33;;;;;;;1.10;0.87;;;28.00;63.30;;;;;;5041666;28;20485;-37
2021/08/12 06:00:06;;;;;;;1.63;0.80;;;28.10;62.80;;;;;;5039060;28;20873;-36
2021/08/12 06:02:37;;;;;;;0.80;0.80;;;28.10;62.60;;;;;;5041607;28;20930;-37
2021/08/12 06:05:09;;;;;;;0.77;0.60;;;28.20;62.60;;;;;;5041225;28;20449;-37
2021/08/12 06:07:40;;;;;;;1.23;0.50;;;28.30;62.00;;;;;;5040995;28;20883;-36
2021/08/12 06:10:12;;;;;;;1.53;0.80;;;28.20;62.00;;;;;;5041056;28;20453;-37
2021/08/12 06:12:44;;;;;;;0.80;0.80;;;28.20;61.90;;;;;;5041612;28;20538;-37
2021/08/12 06:15:16;;;;;;;0.80;0.80;;;28.20;62.60;;;;;;5041766;28;20486;-37
2021/08/12 06:17:47;;;;;;;1.67;0.70;;;28.00;62.80;;;;;;5041934;28;20468;-36
2021/08/12 06:20:18;;;;;;;1.00;0.90;;;27.90;63.30;;;;;;5041767;28;20491;-36
2021/08/12 06:22:52;;;;;;;3.23;0.70;;;27.80;64.50;;;;;;5040738;28;20448;-36
2021/08/12 06:25:24;;;;;;;0.90;0.60;;;27.70;64.60;;;;;;5041932;28;20515;-36
2021/08/12 06:27:57;;;;;;;0.80;0.80;;;27.60;64.60;;;;;;5041673;28;20472;-37
2021/08/12 06:30:28;;;;;;;0.60;0.60;;;27.50;65.10;;;;;;5040275;28;20501;-37
2021/08/12 06:32:59;;;;;;;0.80;0.67;;;27.50;64.80;;;;;;5041250;28;20580;-36
2021/08/12 06:35:31;;;;;;;4.30;0.90;;;27.40;65.60;;;;;;5040559;28;21036;-37
2021/08/12 06:38:03;;;;;;;1.13;0.80;;;27.30;65.00;;;;;;5041009;28;20953;-36
2021/08/12 06:40:34;;;;;;;0.90;0.70;;;27.20;64.80;;;;;;5036372;28;20453;-36
2021/08/12 06:43:07;;;;;;;1.90;0.77;;;27.20;65.80;;;;;;5041081;28;20520;-36
2021/08/12 06:45:38;;;;;;;0.90;0.90;;;27.10;66.80;;;;;;5039678;28;20511;-36
2021/08/12 06:48:09;;;;;;;1.87;1.10;;;27.00;66.30;;;;;;5040882;28;20571;-37
2021/08/12 06:50:44;;;;;;;0.60;0.53;;;26.90;67.10;;;;;;5039914;28;20459;-36
2021/08/12 06:53:15;;;;;;;0.93;0.80;;;26.90;67.40;;;;;;5040685;28;20497;-36
2021/08/12 06:55:46;;;;;;;0.93;0.70;;;26.80;68.60;;;;;;5041028;28;20852;-36
2021/08/12 06:58:18;;;;;;;0.83;0.80;;;26.70;68.60;;;;;;5040517;28;20820;-35
2021/08/12 07:00:49;;;;;;;0.77;0.77;;;26.60;70.00;;;;;;5040095;28;20507;-36
2021/08/12 07:03:20;;;;;;;1.00;0.83;;;26.50;69.80;;;;;;5039090;28;20841;-36
2021/08/12 07:05:51;;;;;;;0.60;0.60;;;26.60;69.40;;;;;;5040007;28;20614;-36
2021/08/12 07:08:22;;;;;;;0.70;0.70;;;26.60;68.90;;;;;;5040234;28;20513;-36
2021/08/12 07:10:53;;;;;;;0.83;0.83;;;26.60;69.20;;;;;;5039458;28;20841;-36
2021/08/12 07:13:26;;;;;;;1.20;0.90;;;26.60;68.80;;;;;;5038060;28;20517;-36
2021/08/12 07:15:57;;;;;;;0.73;0.73;;;26.60;69.90;;;;;;5040716;28;20547;-36
2021/08/12 07:18:28;;;;;;;0.97;0.83;;;26.50;69.90;;;;;;5039784;28;20550;-36
2021/08/12 07:20:59;;;;;;;2.37;0.90;;;26.40;71.00;;;;;;5043140;27;20447;-36
2021/08/12 07:23:32;;;;;;;0.90;0.90;;;26.20;72.30;;;;;;5040558;28;20443;-36
2021/08/12 07:26:03;;;;;;;1.07;0.97;;;26.10;73.10;;;;;;5040217;28;20461;-37
2021/08/12 07:28:36;;;;;;;1.67;1.07;;;26.00;75.50;;;;;;5032805;28;20464;-37
2021/08/12 07:31:07;;;;;;;1.10;1.00;;;25.90;75.30;;;;;;5039727;28;20506;-35
2021/08/12 07:33:39;;;;;;;0.80;0.80;;;25.80;74.90;;;;;;5028358;28;20481;-35
2021/08/12 07:36:10;;;;;;;0.90;0.60;;;25.80;74.70;;;;;;5039262;28;20483;-36
2021/08/12 07:38:41;;;;;;;1.77;0.90;;;25.70;76.00;;;;;;5039298;28;20473;-36
2021/08/12 07:41:13;;;;;;;1.00;0.80;;;25.60;77.50;;;;;;5039252;28;20454;-36
2021/08/12 07:43:45;;;;;;;1.33;1.23;;;25.60;76.80;;;;;;5039632;28;20488;-36
2021/08/12 07:46:16;;;;;;;1.10;0.90;;;25.50;78.60;;;;;;5034213;28;20447;-36
2021/08/12 07:48:47;;;;;;;0.70;0.70;;;25.40;78.60;;;;;;5039952;28;20450;-36
2021/08/12 07:51:18;;;;;;;1.30;0.97;;;25.30;77.70;;;;;;5039041;28;20460;-36
2021/08/12 07:53:49;;;;;;;1.10;0.90;;;25.20;79.30;;;;;;5024556;28;20499;-36
2021/08/12 07:56:21;;;;;;;1.70;1.60;;;25.20;79.80;;;;;;5039955;28;20477;-36
2021/08/12 07:58:54;;;;;;;0.90;0.90;;;25.10;80.30;;;;;;5039737;28;20946;-35
2021/08/12 08:01:25;;;;;;;1.13;1.03;;;25.00;80.40;;;;;;5039636;28;20473;-36
2021/08/12 08:03:59;;;;;;;1.47;1.07;;;25.00;81.10;;;;;;5040110;28;20521;-36
2021/08/12 08:06:32;;;;;;;2.10;1.10;;;24.90;82.50;;;;;;5038873;28;20877;-36
2021/08/12 08:09:03;;;;;;;1.17;0.97;;;24.80;80.60;;;;;;5039390;28;20453;-36
2021/08/12 08:11:34;;;;;;;1.87;1.20;;;24.80;81.10;;;;;;5039092;28;20449;-36
2021/08/12 08:14:09;;;;;;;1.40;1.00;;;24.80;83.80;;;;;;5039637;28;20559;-36
2021/08/12 08:16:40;;;;;;;1.20;1.10;;;24.70;84.70;;;;;;5040077;28;20515;-35
2021/08/12 08:19:11;;;;;;;1.20;1.10;;;24.60;85.70;;;;;;5037985;28;20445;-36
2021/08/12 08:21:41;;;;;;;1.27;0.90;;;24.60;85.90;;;;;;5032739;28;20532;-36
2021/08/12 08:24:12;;;;;;;0.70;0.70;;;24.50;87.10;;;;;;5040136;28;20871;-36
2021/08/12 08:26:43;;;;;;;1.10;0.93;;;24.50;87.10;;;;;;5039762;28;20485;-37
2021/08/12 08:29:16;;;;;;;1.03;0.80;;;24.40;87.20;;;;;;5039836;28;20484;-36
2021/08/12 08:31:47;;;;;;;1.33;1.20;;;24.30;88.50;;;;;;5038313;28;20461;-36
2021/08/12 08:34:18;;;;;;;2.57;1.00;;;24.20;89.10;;;;;;5040154;28;20513;-36
2021/08/12 08:36:49;;;;;;;1.10;1.00;;;24.20;90.10;;;;;;5038619;28;20919;-36
2021/08/12 08:39:20;;;;;;;0.90;0.90;;;24.10;90.50;;;;;;5025830;28;20420;-36
2021/08/12 08:41:51;;;;;;;0.90;0.80;;;24.00;90.90;;;;;;5039858;28;20481;-37
2021/08/12 08:44:25;;;;;;;1.87;1.20;;;24.00;90.90;;;;;;5039591;28;20529;-36
2021/08/12 08:46:56;;;;;;;2.00;1.20;;;24.00;90.60;;;;;;5037656;28;20477;-36
2021/08/12 08:49:29;;;;;;;1.47;1.37;;;24.00;91.50;;;;;;5040161;28;20442;-37
2021/08/12 08:52:00;;;;;;;1.30;0.93;;;23.90;92.50;;;;;;5034859;28;20485;-36
2021/08/12 08:54:33;;;;;;;1.97;1.30;;;23.90;93.30;;;;;;5038751;28;20504;-36
2021/08/12 08:57:06;;;;;;;2.23;1.00;;;23.80;93.90;;;;;;5024403;28;20457;-36
2021/08/12 09:02:27;;;;;;;0.90;0.90;;;23.70;94.50;;;;;;5037320;28;20454;-40
2021/08/12 09:04:58;;;;;;;3.80;1.13;;;23.60;96.10;;;;;;5030594;28;20521;-36
2021/08/12 09:07:30;;;;;;;1.60;1.10;;;23.60;96.40;;;;;;5038356;28;20451;-36
2021/08/12 09:10:01;;;;;;;2.10;0.80;;;23.50;96.70;;;;;;5039465;28;20458;-36
2021/08/12 09:12:32;;;;;;;3.00;1.00;;;23.50;96.80;;;;;;5038376;28;20428;-36
2021/08/12 09:15:07;;;;;;;1.20;1.10;;;23.50;97.70;;;;;;5039375;28;20578;-35
2021/08/12 09:17:38;;;;;;;1.27;1.20;;;23.40;98.30;;;;;;5039496;28;20472;-36
2021/08/12 09:20:12;;;;;;;1.57;1.03;;;23.40;98.60;;;;;;5038813;28;20453;-37
2021/08/12 09:22:56;;;;;;;1.33;0.80;;;23.40;99.00;;;;;;5037858;28;20503;-36
2021/08/12 09:25:39;;;;;;;1.27;1.17;;;23.30;99.00;;;;;;5038908;28;20484;-37
2021/08/12 09:28:25;;;;;;;1.47;1.37;;;23.30;99.90;;;;;;5040055;28;20453;-36
2021/08/12 09:31:12;;;;;;;2.57;1.30;;;23.20;99.90;;;;;;5038364;28;20456;-37
2021/08/12 09:33:55;;;;;;;1.57;1.30;;;23.10;99.60;;;;;;5038586;28;20450;-36
2021/08/12 09:36:30;;;;;;;1.20;1.10;;;23.20;99.90;;;;;;5041618;28;20473;-37
2021/08/12 09:39:24;;;;;;;1.63;1.20;;;23.10;99.70;;;;;;5042109;28;20536;-37
2021/08/12 09:41:56;;;;;;;1.43;1.30;;;23.20;99.90;;;;;;5036089;28;20449;-36
2021/08/12 09:44:42;;;;;;;1.03;0.93;;;23.20;99.90;;;;;;5043057;28;20493;-36
2021/08/12 09:47:17;;;;;;;1.40;1.30;;;23.20;99.90;;;;;;5039119;28;20486;-36
2021/08/12 09:49:50;;;;;;;1.50;1.07;;;23.10;99.90;;;;;;5043120;28;20505;-35
2021/08/12 09:52:33;;;;;;;1.30;1.20;;;23.00;99.90;;;;;;5040266;28;20513;-36
2021/08/12 09:55:10;;;;;;;1.57;0.90;;;22.90;99.90;;;;;;5042132;28;20484;-35
2021/08/12 09:57:46;;;;;;;1.57;1.00;;;22.80;99.90;;;;;;5042588;28;20457;-36
2021/08/12 10:00:32;;;;;;;1.27;0.93;;;22.80;99.90;;;;;;5042445;28;20579;-35
2021/08/12 10:03:21;;;;;;;1.20;1.10;;;22.70;99.90;;;;;;5037447;28;20425;-35
2021/08/12 10:05:54;;;;;;;1.90;1.03;;;22.70;99.90;;;;;;5039957;28;20436;-35
2021/08/12 10:08:30;;;;;;;1.53;1.00;;;22.70;99.90;;;;;;5041877;28;20484;-35
2021/08/12 10:11:19;;;;;;;1.43;1.23;;;22.70;99.90;;;;;;5041638;28;20450;-36
2021/08/12 10:13:51;;;;;;;1.17;1.07;;;22.70;99.90;;;;;;5032043;28;20923;-35
2021/08/12 10:16:22;;;;;;;1.00;0.90;;;22.70;99.90;;;;;;5041949;28;20449;-36
2021/08/12 10:18:57;;;;;;;1.10;1.00;;;22.60;99.90;;;;;;5041626;28;20454;-36
2021/08/12 10:21:28;;;;;;;1.60;1.40;;;22.60;99.90;;;;;;5038555;28;20492;-36
2021/08/12 10:24:01;;;;;;;1.40;1.30;;;22.60;99.90;;;;;;5041209;28;20469;-37
2021/08/12 10:26:34;;;;;;;1.40;1.30;;;22.60;99.90;;;;;;5035822;28;20442;-36
2021/08/12 10:29:10;;;;;;;1.77;1.13;;;22.50;99.90;;;;;;5041073;28;20441;-36
2021/08/12 10:31:44;;;;;;;1.63;1.20;;;22.50;99.90;;;;;;5030751;28;20449;-40
2021/08/12 10:34:17;;;;;;;2.17;1.00;;;22.40;99.90;;;;;;5041364;28;20427;-38
2021/08/12 10:36:49;;;;;;;1.40;1.30;;;22.50;99.90;;;;;;5040601;28;20447;-36
2021/08/12 10:39:21;;;;;;;2.23;1.33;;;22.40;99.90;;;;;;5027314;28;20488;-37
2021/08/12 10:41:52;;;;;;;2.23;1.27;;;22.40;99.90;;;;;;5040658;28;20536;-37
2021/08/12 10:44:24;;;;;;;1.60;1.50;;;22.30;99.90;;;;;;5041694;28;20473;-36
2021/08/12 10:46:55;;;;;;;1.63;1.10;;;22.30;99.90;;;;;;5040417;28;20434;-36
2021/08/12 10:49:28;;;;;;;1.63;1.10;;;22.30;99.90;;;;;;5040055;28;20450;-35
2021/08/12 10:52:05;;;;;;;1.37;1.27;;;22.30;99.90;;;;;;5038435;28;20455;-37
2021/08/12 10:54:37;;;;;;;1.33;1.23;;;22.30;99.90;;;;;;5040289;28;20473;-35
2021/08/12 10:57:22;;;;;;;1.73;1.10;;;22.20;99.90;;;;;;5040793;28;20416;-36
2021/08/12 10:59:54;;;;;;;1.20;1.10;;;22.20;99.90;;;;;;5040637;28;20477;-34
2021/08/12 11:02:43;;;;;;;1.50;1.40;;;22.10;99.90;;;;;;5039648;28;20518;-36
2021/08/12 11:05:16;;;;;;;1.63;1.30;;;22.10;99.90;;;;;;5026309;28;20510;-35
2021/08/12 11:07:54;;;;;;;2.60;1.03;;;21.90;99.90;;;;;;5040038;28;20511;-35
2021/08/12 11:10:25;;;;;;;1.20;1.10;;;21.90;99.90;;;;;;5040549;28;20438;-36
2021/08/12 11:13:11;;;;;;;1.10;1.00;;;21.80;99.90;;;;;;5040215;28;20552;-35
2021/08/12 11:16:02;;;;;;;1.20;1.10;;;21.70;99.90;;;;;;5040792;28;20508;-36
2021/08/12 11:18:48;;;;;;;2.00;1.40;;;21.70;99.90;;;;;;5044221;28;20464;-35
2021/08/12 11:21:41;;;;;;;1.33;1.23;;;21.70;99.90;;;;;;5039392;28;20449;-36
2021/08/12 11:24:16;;;;;;;1.60;1.50;;;21.70;99.90;;;;;;5040300;28;20463;-41
2021/08/12 11:27:08;;;;;;;2.30;1.70;;;21.70;99.90;;;;;;5040744;28;20416;-44
2021/08/12 11:29:39;;;;;;;1.60;1.50;;;21.60;99.90;;;;;;5040612;28;20519;-37
2021/08/12 11:32:14;;;;;;;1.50;1.40;;;21.70;99.90;;;;;;5040382;28;20458;-35
2021/08/12 11:34:58;;;;;;;1.77;1.67;;;21.70;99.90;;;;;;5040259;28;20449;-35
2021/08/12 11:37:31;;;;;;;1.80;1.40;;;21.70;99.90;;;;;;5038362;28;20425;-35
2021/08/12 11:40:04;;;;;;;2.90;1.80;;;21.70;99.90;;;;;;5040115;28;20424;-36
2021/08/12 11:42:37;;;;;;;2.90;1.67;;;21.60;99.90;;;;;;5039700;28;20442;-35
2021/08/12 11:45:10;;;;;;;2.30;1.77;;;21.50;99.90;;;;;;5040351;28;20454;-35
2021/08/12 11:47:43;;;;;;;2.13;1.60;;;21.40;99.90;;;;;;5038779;28;21035;-35
2021/08/12 11:50:15;;;;;;;2.57;1.60;;;21.40;99.90;;;;;;5040356;28;20435;-34
2021/08/12 11:52:54;;;;;;;3.10;1.60;;;21.40;99.90;;;;;;5038894;28;20448;-35
2021/08/12 11:55:25;;;;;;;2.03;1.47;;;21.40;99.90;;;;;;5039204;28;20455;-34
2021/08/12 11:57:57;;;;;;;5.47;1.60;;;21.30;99.90;;;;;;5039154;28;20441;-35
2021/08/12 12:00:47;;;;;;;1.50;1.40;;;21.30;99.90;;;;;;5040117;28;20744;-34
2021/08/12 12:03:29;;;;;;;1.50;1.40;;;21.40;99.90;;;;;;5040338;28;20428;-34
2021/08/12 12:06:00;;;;;;;2.03;1.63;;;21.30;99.90;;;;;;5038637;28;20445;-34
2021/08/12 12:08:33;;;;;;;2.70;1.40;;;21.20;99.90;;;;;;5039924;28;20965;-34
2021/08/12 12:11:13;;;;;;;1.77;1.63;;;21.20;99.90;;;;;;5039323;28;20428;-35
2021/08/12 12:13:44;;;;;;;2.50;1.50;;;21.10;99.90;;;;;;5034552;28;20428;-34
2021/08/12 12:16:15;;;;;;;1.73;1.30;;;21.10;99.90;;;;;;5039005;28;20463;-34
2021/08/12 12:18:46;;;;;;;1.80;1.30;;;21.10;99.90;;;;;;5039934;28;20446;-34
2021/08/12 12:21:19;;;;;;;1.80;1.40;;;21.00;99.90;;;;;;5037151;28;21030;-33
2021/08/12 12:23:52;;;;;;;2.23;1.73;;;21.00;99.90;;;;;;5039158;28;20555;-33
2021/08/12 12:26:24;;;;;;;1.70;1.60;;;20.90;99.90;;;;;;5039415;28;20488;-34
2021/08/12 12:28:56;;;;;;;1.90;1.57;;;20.90;99.90;;;;;;5040065;28;20424;-33
2021/08/12 12:31:27;;;;;;;1.50;1.40;;;20.80;99.90;;;;;;5039441;28;20420;-34
2021/08/12 12:34:00;;;;;;;1.47;1.37;;;20.80;99.90;;;;;;5039913;28;20433;-33
2021/08/12 12:36:31;;;;;;;1.63;1.20;;;20.80;99.90;;;;;;5038172;28;20524;-34
2021/08/12 12:39:04;;;;;;;1.63;1.53;;;20.80;99.90;;;;;;5039604;28;20547;-34
2021/08/12 12:41:35;;;;;;;2.13;1.33;;;20.80;99.90;;;;;;5036728;28;20453;-34
2021/08/12 12:44:10;;;;;;;1.40;1.30;;;20.80;99.90;;;;;;5039220;28;20492;-35
2021/08/12 12:46:41;;;;;;;1.60;1.20;;;20.90;99.90;;;;;;5038830;28;20427;-34
2021/08/12 12:49:26;;;;;;;1.77;1.30;;;20.80;99.90;;;;;;5040094;28;20451;-34
2021/08/12 12:52:07;;;;;;;1.60;1.50;;;20.80;99.90;;;;;;5038333;28;20507;-34
2021/08/12 12:54:41;;;;;;;1.37;1.27;;;20.80;99.90;;;;;;5039199;28;20498;-34
2021/08/12 12:57:13;;;;;;;1.50;1.40;;;20.70;99.90;;;;;;5038681;28;20546;-34
2021/08/12 13:00:03;;;;;;;1.63;1.53;;;20.70;99.90;;;;;;5038943;28;20512;-34
2021/08/12 13:02:34;;;;;;;2.13;1.90;;;20.70;99.90;;;;;;5039175;28;20459;-35
2021/08/12 13:05:05;;;;;;;2.90;1.20;;;20.60;99.90;;;;;;5038759;28;20546;-34
2021/08/12 13:07:36;;;;;;;2.13;1.70;;;20.60;99.90;;;;;;5038684;28;20484;-35
2021/08/12 13:10:21;;;;;;;1.70;1.60;;;20.50;99.90;;;;;;5039904;27;20530;-35
2021/08/12 13:13:03;;;;;;;1.90;1.70;;;20.40;99.90;;;;;;5038399;28;20424;-34
2021/08/12 13:15:35;;;;;;;2.87;1.40;;;20.40;99.90;;;;;;5041984;28;20449;-35
2021/08/12 13:18:07;;;;;;;2.00;1.67;;;20.50;99.90;;;;;;5042662;28;20453;-35
2021/08/12 13:20:41;;;;;;;1.93;1.73;;;20.40;99.90;;;;;;5041825;28;20516;-34
2021/08/12 13:23:13;;;;;;;1.67;1.50;;;20.40;99.90;;;;;;5041958;28;20453;-35
2021/08/12 13:25:57;;;;;;;2.80;1.97;;;20.40;99.90;;;;;;5041988;28;20416;-34